Time;durP1;ratioP1;P1;durP2;ratioP2;P2;SDS_P1;SDS_P2;PMS_P1;PMS_P2;Temp;Humidity;BMP_temperature;BMP_pressure;BME280_temperature;BME280_humidity;BME280_pressure;Samples;Min_cycle;Max_cycle;Signal;HPM_P1;HPM_P2
2022/06/16 00:00:58;;;;;;;15.40;5.78;;;537.70;2099.20;;;;;;5091260;28;20477;-77
2022/06/16 00:03:24;;;;;;;11.80;5.30;;;537.70;2099.20;;;;;;5094676;28;20106;-76
2022/06/16 00:05:50;;;;;;;14.00;6.53;;;537.60;2124.80;;;;;;5094885;28;20457;-76
2022/06/16 00:08:18;;;;;;;11.20;5.00;;;537.60;2073.60;;;;;;5094648;28;20035;-77
2022/06/16 00:13:33;;;;;;;17.02;5.75;;;537.60;2022.40;;;;;;5090863;28;20405;-77
2022/06/16 00:15:59;;;;;;;16.67;5.97;;;537.60;1971.20;;;;;;5093002;28;20028;-76
2022/06/16 00:18:26;;;;;;;9.10;6.35;;;537.60;1945.60;;;;;;5093249;28;20034;-75
2022/06/16 00:20:52;;;;;;;17.08;5.88;;;537.60;1971.20;;;;;;5094618;28;20028;-76
2022/06/16 00:23:18;;;;;;;14.80;6.13;;;537.70;1971.20;;;;;;5092900;28;20111;-76
2022/06/16 00:25:43;;;;;;;9.88;5.57;;;537.60;1971.20;;;;;;5093220;28;20099;-76
2022/06/16 00:28:09;;;;;;;12.70;5.45;;;512.90;1945.60;;;;;;5092935;28;20216;-76
2022/06/16 00:30:35;;;;;;;13.30;6.10;;;512.90;1971.20;;;;;;5094306;28;20027;-77
2022/06/16 00:33:01;;;;;;;18.00;5.72;;;512.90;1996.80;;;;;;5092664;28;20085;-77
2022/06/16 00:35:27;;;;;;;15.45;5.70;;;512.90;1971.20;;;;;;5094349;28;20028;-77
2022/06/16 00:37:52;;;;;;;13.63;5.95;;;512.90;1996.80;;;;;;5094035;28;20389;-77
2022/06/16 00:40:18;;;;;;;10.50;6.15;;;512.90;1996.80;;;;;;5102859;28;20067;-76
2022/06/16 00:42:45;;;;;;;15.18;6.90;;;512.90;1971.20;;;;;;5092406;28;20023;-76
2022/06/16 00:45:42;;;;;;;13.57;6.38;;;512.90;1996.80;;;;;;5095678;28;20096;-77
2022/06/16 00:48:10;;;;;;;13.52;5.95;;;512.90;1996.80;;;;;;5094109;28;20473;-77
2022/06/16 00:50:36;;;;;;;15.43;6.30;;;512.90;1996.80;;;;;;5110400;28;20088;-77
2022/06/16 00:53:02;;;;;;;19.38;6.78;;;512.90;1996.80;;;;;;5110394;28;20019;-77
2022/06/16 00:55:28;;;;;;;12.88;5.88;;;537.60;1996.80;;;;;;5095913;28;20099;-78
2022/06/16 00:57:54;;;;;;;15.75;6.72;;;537.60;1996.80;;;;;;5110317;28;20024;-77
2022/06/16 01:00:36;;;;;;;17.65;6.60;;;512.90;1971.20;;;;;;5110087;28;20026;-76
2022/06/16 01:03:02;;;;;;;11.82;6.00;;;512.90;1971.20;;;;;;5109367;28;20023;-76
2022/06/16 01:05:28;;;;;;;11.50;5.93;;;537.60;1996.80;;;;;;5095620;28;20053;-76
2022/06/16 01:07:55;;;;;;;14.38;6.05;;;537.70;1971.20;;;;;;5110245;28;20019;-76
2022/06/16 01:10:21;;;;;;;12.18;6.78;;;537.70;1971.20;;;;;;5109832;28;20020;-76
2022/06/16 01:13:43;;;;;;;14.68;5.72;;;537.80;1945.60;;;;;;5092297;28;20031;-77
2022/06/16 01:16:36;;;;;;;20.42;6.95;;;537.80;1945.60;;;;;;5031078;28;20041;-77
2022/06/16 01:19:17;;;;;;;11.50;6.05;;;537.70;1971.20;;;;;;5014012;28;20017;-77
2022/06/16 01:22:20;;;;;;;17.80;6.75;;;537.70;1971.20;;;;;;5031045;28;20034;-77
2022/06/16 01:25:01;;;;;;;13.93;6.90;;;537.60;1996.80;;;;;;5025098;28;20047;-77
2022/06/16 01:28:08;;;;;;;13.52;6.65;;;537.60;1996.80;;;;;;5028572;28;20037;-76
2022/06/16 01:30:50;;;;;;;10.80;6.03;;;537.60;1996.80;;;;;;4932257;29;20046;-76
2022/06/16 01:33:35;;;;;;;11.23;6.55;;;512.90;1996.80;;;;;;4933324;29;20074;-77
2022/06/16 01:36:34;;;;;;;11.15;6.70;;;512.70;2048.00;;;;;;4914239;29;20048;-76
2022/06/16 01:39:24;;;;;;;15.55;7.18;;;512.50;2073.60;;;;;;4929378;29;20826;-76
2022/06/16 01:42:23;;;;;;;15.05;7.38;;;512.40;2099.20;;;;;;4930541;29;20518;-77
2022/06/16 01:45:24;;;;;;;16.70;7.82;;;512.50;2073.60;;;;;;4858161;29;20413;-77
2022/06/16 01:47:51;;;;;;;15.23;7.35;;;512.40;2099.20;;;;;;4858136;29;20041;-77
2022/06/16 01:50:30;;;;;;;15.43;9.00;;;512.40;2073.60;;;;;;4857867;29;20033;-77
2022/06/16 01:53:03;;;;;;;16.13;7.90;;;512.60;2073.60;;;;;;4909978;29;20035;-76
2022/06/16 01:55:33;;;;;;;15.52;7.07;;;512.60;2048.00;;;;;;4917337;29;20063;-77
2022/06/16 01:58:19;;;;;;;20.00;8.13;;;512.70;2048.00;;;;;;4933211;29;20067;-76
2022/06/16 02:00:46;;;;;;;18.10;7.85;;;512.60;2048.00;;;;;;4932866;29;20115;-77
2022/06/16 02:03:27;;;;;;;16.17;7.53;;;512.40;2099.20;;;;;;4933195;29;20055;-77
2022/06/16 02:06:01;;;;;;;19.65;8.02;;;512.40;2124.80;;;;;;4933058;29;20055;-77
2022/06/16 02:08:34;;;;;;;17.63;7.30;;;512.30;2150.40;;;;;;5000821;28;20120;-76
2022/06/16 02:11:12;;;;;;;18.10;7.43;;;512.30;2176.00;;;;;;5030058;28;20021;-77
2022/06/16 02:13:51;;;;;;;14.65;7.50;;;512.10;2227.20;;;;;;5011694;28;20107;-76
2022/06/16 02:16:22;;;;;;;13.30;8.25;;;512.10;2201.60;;;;;;5028818;28;20498;-77
2022/06/16 02:18:51;;;;;;;18.13;8.48;;;512.10;2201.60;;;;;;5027338;28;20120;-77
2022/06/16 02:21:20;;;;;;;16.17;7.93;;;512.20;2176.00;;;;;;5054831;28;20088;-76
2022/06/16 02:23:46;;;;;;;17.90;7.10;;;512.20;2176.00;;;;;;5109106;28;20466;-77
2022/06/16 02:26:14;;;;;;;14.05;7.05;;;512.10;2176.00;;;;;;5111848;28;20019;-76
2022/06/16 02:28:53;;;;;;;14.23;7.05;;;512.10;2176.00;;;;;;5093942;28;20065;-76
2022/06/16 02:31:43;;;;;;;16.98;7.25;;;512.00;2201.60;;;;;;5107988;28;20024;-76
2022/06/16 02:34:41;;;;;;;18.63;7.13;;;512.00;2201.60;;;;;;5091553;28;20047;-77
2022/06/16 02:37:48;;;;;;;12.32;6.20;;;512.00;2201.60;;;;;;5108977;28;20028;-77
2022/06/16 02:40:35;;;;;;;12.65;6.82;;;512.10;2176.00;;;;;;5104577;28;20438;-77
2022/06/16 02:43:19;;;;;;;13.98;6.50;;;512.10;2176.00;;;;;;5107270;28;20042;-78
2022/06/16 02:46:11;;;;;;;14.05;6.65;;;512.10;2176.00;;;;;;5103117;28;20077;-79
2022/06/16 02:48:51;;;;;;;10.35;5.88;;;512.20;2201.60;;;;;;5103071;28;20386;-78
2022/06/16 02:51:23;;;;;;;16.35;6.97;;;487.30;2252.80;;;;;;5093797;28;20069;-79
2022/06/16 02:54:13;;;;;;;17.95;6.80;;;487.00;2329.60;;;;;;5109356;28;20094;-79
2022/06/16 02:56:59;;;;;;;11.45;6.10;;;486.70;2380.80;;;;;;5092422;28;20032;-76
2022/06/16 02:59:43;;;;;;;11.80;6.38;;;486.70;2380.80;;;;;;5108720;28;20063;-79
2022/06/16 03:02:15;;;;;;;13.77;6.80;;;486.40;2380.80;;;;;;5074378;28;20027;-79
2022/06/16 03:04:43;;;;;;;11.15;5.93;;;461.60;2380.80;;;;;;5094007;28;20046;-79
2022/06/16 03:07:14;;;;;;;14.48;6.60;;;461.20;2380.80;;;;;;5106277;28;20012;-78
2022/06/16 03:09:40;;;;;;;14.30;6.43;;;460.80;2380.80;;;;;;5093775;28;20058;-79
2022/06/16 03:12:08;;;;;;;10.73;5.85;;;461.30;2380.80;;;;;;5093404;28;20022;-78
2022/06/16 03:14:33;;;;;;;14.43;6.15;;;461.00;2380.80;;;;;;5088726;28;20089;-78
2022/06/16 03:16:59;;;;;;;9.82;6.30;;;460.90;2380.80;;;;;;5111985;28;20031;-78
2022/06/16 03:19:26;;;;;;;8.75;5.32;;;460.80;2380.80;;;;;;5103678;28;20119;-78
2022/06/16 03:21:54;;;;;;;11.88;6.35;;;460.80;2380.80;;;;;;5100507;28;20023;-79
2022/06/16 03:24:19;;;;;;;11.90;5.32;;;460.80;2380.80;;;;;;5091971;28;20027;-78
2022/06/16 03:26:45;;;;;;;14.00;6.45;;;460.90;2380.80;;;;;;5093710;28;20020;-76
2022/06/16 03:29:11;;;;;;;14.75;5.28;;;436.10;2355.20;;;;;;5108091;28;20027;-79
2022/06/16 03:31:37;;;;;;;14.35;5.63;;;435.80;2355.20;;;;;;5104492;28;20043;-78
2022/06/16 03:34:02;;;;;;;12.77;6.03;;;436.00;2355.20;;;;;;5104204;28;20533;-75
2022/06/16 03:36:29;;;;;;;14.95;5.38;;;435.70;2355.20;;;;;;5095457;28;20032;-76
2022/06/16 03:38:55;;;;;;;16.65;6.40;;;435.90;2355.20;;;;;;5097403;28;20585;-76
2022/06/16 03:41:21;;;;;;;14.90;6.25;;;435.90;2355.20;;;;;;5090935;28;20047;-78
2022/06/16 03:43:46;;;;;;;13.35;6.28;;;435.90;2355.20;;;;;;5112621;28;20489;-76
2022/06/16 03:46:14;;;;;;;20.13;8.73;;;435.90;2355.20;;;;;;5091722;28;20022;-76
2022/06/16 03:48:40;;;;;;;30.90;14.13;;;435.90;2355.20;;;;;;5108563;28;20615;-75
2022/06/16 03:51:07;;;;;;;64.78;26.10;;;435.90;2355.20;;;;;;5094709;28;20059;-76
2022/06/16 03:53:33;;;;;;;56.28;22.33;;;435.90;2355.20;;;;;;5107589;28;20076;-75
2022/06/16 03:55:58;;;;;;;55.75;22.85;;;435.90;2355.20;;;;;;5097014;28;20418;-76
2022/06/16 03:58:24;;;;;;;51.13;21.05;;;435.90;2355.20;;;;;;5094948;28;20053;-75
2022/06/16 04:00:50;;;;;;;48.13;21.95;;;436.10;2355.20;;;;;;5109408;28;20020;-76
2022/06/16 04:06:01;;;;;;;46.25;20.77;;;460.90;2380.80;;;;;;5109124;28;20161;-78
2022/06/16 04:08:28;;;;;;;48.90;17.45;;;461.00;2380.80;;;;;;5109633;28;20068;-76
2022/06/16 04:10:54;;;;;;;32.30;14.32;;;461.10;2380.80;;;;;;5108916;28;20020;-76
2022/06/16 04:13:20;;;;;;;29.52;12.27;;;461.20;2380.80;;;;;;5095541;28;20542;-76
2022/06/16 04:15:46;;;;;;;34.35;11.98;;;461.20;2380.80;;;;;;5096839;28;20514;-75
2022/06/16 04:18:12;;;;;;;23.17;10.27;;;461.50;2380.80;;;;;;5109616;28;20034;-75
2022/06/16 04:20:38;;;;;;;23.02;10.20;;;461.60;2380.80;;;;;;5096649;28;20070;-78
2022/06/16 04:23:06;;;;;;;16.40;8.57;;;461.70;2380.80;;;;;;5096607;28;20035;-78
2022/06/16 04:25:33;;;;;;;24.60;9.68;;;486.40;2380.80;;;;;;5096442;28;20022;-78
2022/06/16 04:28:00;;;;;;;17.65;8.55;;;486.40;2380.80;;;;;;5110580;28;20015;-78
2022/06/16 04:30:27;;;;;;;30.27;8.75;;;486.60;2380.80;;;;;;5095872;28;20098;-78
2022/06/16 04:32:53;;;;;;;15.20;8.40;;;486.60;2380.80;;;;;;5109776;28;20026;-76
2022/06/16 04:35:20;;;;;;;24.17;9.40;;;486.80;2380.80;;;;;;5094974;28;20437;-76
2022/06/16 04:37:45;;;;;;;30.40;8.45;;;487.00;2380.80;;;;;;5108561;28;20024;-76
2022/06/16 04:40:12;;;;;;;19.85;9.48;;;487.10;2380.80;;;;;;5106988;28;20545;-76
2022/06/16 04:42:37;;;;;;;20.52;7.88;;;487.10;2380.80;;;;;;5109631;28;20081;-77
2022/06/16 04:45:04;;;;;;;15.07;7.68;;;487.20;2380.80;;;;;;5096140;28;20410;-76
2022/06/16 04:47:30;;;;;;;18.95;9.10;;;487.20;2380.80;;;;;;5111057;28;20634;-78
2022/06/16 04:49:56;;;;;;;12.45;7.70;;;487.30;2380.80;;;;;;5109351;28;20107;-75
2022/06/16 04:52:22;;;;;;;22.13;7.75;;;512.00;2380.80;;;;;;5107780;28;20020;-75
2022/06/16 04:54:49;;;;;;;18.60;7.90;;;487.30;2380.80;;;;;;5108069;28;20424;-74
2022/06/16 04:57:15;;;;;;;19.33;8.32;;;512.00;2380.80;;;;;;5092936;28;20032;-76
2022/06/16 04:59:41;;;;;;;13.52;7.25;;;512.00;2380.80;;;;;;5109467;28;20031;-74
2022/06/16 05:02:08;;;;;;;12.85;7.28;;;487.30;2380.80;;;;;;5109168;28;20019;-74
2022/06/16 05:04:35;;;;;;;16.63;7.65;;;512.20;2380.80;;;;;;5106447;28;20149;-72
2022/06/16 05:07:01;;;;;;;14.35;7.40;;;512.20;2380.80;;;;;;5107744;28;20099;-73
2022/06/16 05:09:28;;;;;;;20.35;7.43;;;512.10;2380.80;;;;;;5108824;28;20012;-73
2022/06/16 05:11:54;;;;;;;17.88;6.97;;;512.50;2380.80;;;;;;5094883;28;20031;-75
2022/06/16 05:14:20;;;;;;;11.93;6.40;;;512.70;2380.80;;;;;;5112495;28;20023;-74
2022/06/16 05:16:47;;;;;;;15.15;7.00;;;512.90;2380.80;;;;;;5107379;28;20024;-73
2022/06/16 05:19:13;;;;;;;12.88;6.30;;;537.60;2406.40;;;;;;5105478;28;20482;-74
2022/06/16 05:21:39;;;;;;;13.48;5.97;;;537.70;2406.40;;;;;;5101971;28;20020;-74
2022/06/16 05:24:05;;;;;;;13.00;6.25;;;537.80;2406.40;;;;;;5108889;28;20024;-74
2022/06/16 05:26:31;;;;;;;16.48;7.78;;;537.80;2406.40;;;;;;5106368;28;20027;-74
2022/06/16 05:28:56;;;;;;;14.10;6.15;;;537.90;2406.40;;;;;;5107996;28;20019;-75
2022/06/16 05:31:23;;;;;;;16.33;6.78;;;538.00;2406.40;;;;;;5108030;28;20021;-76
2022/06/16 05:33:49;;;;;;;7.45;5.55;;;538.10;2380.80;;;;;;5095067;28;20077;-77
2022/06/16 05:36:17;;;;;;;14.75;7.13;;;538.50;2329.60;;;;;;5094795;28;20019;-76
2022/06/16 05:38:43;;;;;;;18.50;7.85;;;538.40;2304.00;;;;;;5091250;28;20072;-75
2022/06/16 05:41:15;;;;;;;12.90;5.80;;;538.40;2278.40;;;;;;5093859;28;20039;-75
2022/06/16 05:43:42;;;;;;;14.02;6.15;;;538.50;2304.00;;;;;;5104193;28;20020;-76
2022/06/16 05:46:18;;;;;;;13.95;6.32;;;563.20;2304.00;;;;;;5109647;28;20012;-76
2022/06/16 05:48:44;;;;;;;13.93;6.50;;;563.30;2355.20;;;;;;5107322;28;20024;-76
2022/06/16 05:51:12;;;;;;;8.85;6.18;;;563.40;2329.60;;;;;;5125432;27;20106;-76
2022/06/16 05:53:38;;;;;;;14.27;6.70;;;563.40;2329.60;;;;;;5133893;27;20026;-76
2022/06/16 05:56:04;;;;;;;22.95;7.82;;;563.60;2329.60;;;;;;5123197;27;20023;-76
2022/06/16 05:58:30;;;;;;;14.13;6.50;;;563.50;2304.00;;;;;;5127546;27;20590;-76
2022/06/16 06:00:56;;;;;;;13.77;6.15;;;563.60;2252.80;;;;;;5102948;27;20016;-76
2022/06/16 06:03:22;;;;;;;14.02;5.15;;;563.60;2176.00;;;;;;5100710;28;20377;-76
2022/06/16 06:05:48;;;;;;;13.27;5.57;;;563.80;2176.00;;;;;;5133893;27;20016;-77
2022/06/16 06:16:35;;;;;;;12.25;5.72;;;564.10;2124.80;;;;;;5123218;27;20319;-77
2022/06/16 06:22:02;;;;;;;;;;;588.90;2176.00;;;;;;5113746;28;20515;-77
2022/06/16 06:24:50;;;;;;;13.38;6.22;;;589.00;2176.00;;;;;;5094653;28;19911;-77
2022/06/16 06:27:23;;;;;;;12.30;6.20;;;589.10;2099.20;;;;;;5127039;27;20072;-75
2022/06/16 06:29:49;;;;;;;39.67;7.40;;;589.20;2201.60;;;;;;5100647;28;20015;-76
2022/06/16 06:32:17;;;;;;;12.88;5.60;;;589.30;2150.40;;;;;;5103617;28;20028;-74
2022/06/16 06:34:43;;;;;;;9.68;5.95;;;589.40;2048.00;;;;;;5105896;28;20103;-76
2022/06/16 06:37:12;;;;;;;13.50;6.53;;;589.40;2022.40;;;;;;5110396;28;20110;-75
2022/06/16 06:39:38;;;;;;;13.15;6.00;;;589.50;2048.00;;;;;;5096782;27;20023;-76
2022/06/16 06:42:04;;;;;;;16.75;6.00;;;589.50;2022.40;;;;;;5133232;27;20027;-74
2022/06/16 06:44:31;;;;;;;8.65;5.72;;;589.50;2048.00;;;;;;5128485;27;20028;-75
2022/06/16 06:46:57;;;;;;;21.02;6.97;;;;;;;;;;5123301;27;20027;-77
2022/06/16 06:49:24;;;;;;;9.43;5.55;;;614.40;2022.40;;;;;;5130252;27;20469;-75
2022/06/16 06:51:49;;;;;;;10.38;5.68;;;614.60;1920.00;;;;;;5114283;28;20035;-76
2022/06/16 06:54:15;;;;;;;12.13;6.00;;;614.70;1971.20;;;;;;5132834;28;20488;-76
2022/06/16 06:56:41;;;;;;;21.45;6.00;;;614.80;1868.80;;;;;;5132904;28;20035;-76
2022/06/16 06:59:13;;;;;;;18.45;6.35;;;614.80;1868.80;;;;;;5114109;28;20047;-75
2022/06/16 07:01:39;;;;;;;19.27;6.07;;;614.80;1894.40;;;;;;5103957;28;20391;-79
2022/06/16 07:04:05;;;;;;;14.65;6.25;;;615.00;1868.80;;;;;;5106786;28;20028;-76
2022/06/16 07:06:31;;;;;;;15.18;6.13;;;615.10;1868.80;;;;;;5103636;28;20508;-77
2022/06/16 07:08:57;;;;;;;11.75;6.35;;;615.30;1817.60;;;;;;5106674;28;20020;-76
2022/06/16 07:11:23;;;;;;;10.32;5.95;;;640.00;1817.60;;;;;;5087072;28;20023;-75
2022/06/16 07:13:49;;;;;;;14.25;5.93;;;640.10;1817.60;;;;;;5110134;28;20091;-75
2022/06/16 07:16:15;;;;;;;10.30;5.07;;;640.30;1843.20;;;;;;5114145;28;20183;-75
2022/06/16 07:18:41;;;;;;;11.45;4.75;;;640.40;1766.40;;;;;;5105358;27;20035;-75
2022/06/16 07:21:07;;;;;;;10.95;5.18;;;640.40;1740.80;;;;;;5104700;28;20042;-74
2022/06/16 07:23:33;;;;;;;12.35;5.20;;;640.40;1766.40;;;;;;5100152;27;20385;-74
2022/06/16 07:25:59;;;;;;;7.47;4.90;;;640.70;1740.80;;;;;;5136649;27;20026;-73
2022/06/16 07:28:25;;;;;;;16.83;5.57;;;640.70;1664.00;;;;;;5122023;27;20024;-74
2022/06/16 07:30:51;;;;;;;13.50;5.22;;;640.90;1715.20;;;;;;5136747;27;20039;-75
2022/06/16 07:33:16;;;;;;;12.35;4.97;;;665.60;1689.60;;;;;;5136732;27;20030;-75
2022/06/16 07:35:44;;;;;;;10.18;4.43;;;665.70;1612.80;;;;;;5116213;27;20473;-77
2022/06/16 07:38:11;;;;;;;7.53;4.65;;;665.70;1638.40;;;;;;5111388;28;20031;-76
2022/06/16 07:40:38;;;;;;;11.82;5.10;;;665.70;1612.80;;;;;;5108694;28;20124;-75
2022/06/16 07:43:04;;;;;;;10.25;4.57;;;665.90;1612.80;;;;;;5110048;28;20027;-76
2022/06/16 07:45:31;;;;;;;10.65;4.50;;;666.00;1612.80;;;;;;5107169;28;20020;-74
2022/06/16 07:48:00;;;;;;;8.35;4.55;;;666.20;1587.20;;;;;;5111037;28;20465;-76
2022/06/16 07:50:27;;;;;;;12.73;4.63;;;666.40;1561.60;;;;;;5108000;28;20401;-80
2022/06/16 07:52:52;;;;;;;12.57;4.55;;;666.50;1536.00;;;;;;5115701;28;20015;-74
2022/06/16 07:55:18;;;;;;;6.35;4.03;;;666.40;1484.80;;;;;;5115774;28;20023;-74
2022/06/16 07:57:49;;;;;;;7.53;4.40;;;666.50;1484.80;;;;;;5129910;27;20027;-75
2022/06/16 08:00:22;;;;;;;8.18;4.10;;;691.20;1510.40;;;;;;5104728;27;20016;-73
2022/06/16 08:02:47;;;;;;;9.57;3.60;;;691.30;1459.20;;;;;;5136082;27;20072;-77
2022/06/16 08:05:14;;;;;;;7.18;3.88;;;691.40;1459.20;;;;;;5117268;27;20023;-74
2022/06/16 08:07:41;;;;;;;7.93;4.00;;;691.50;1433.60;;;;;;5115398;28;20024;-75
2022/06/16 08:10:09;;;;;;;11.70;4.00;;;691.60;1433.60;;;;;;5109727;27;20430;-75
2022/06/16 08:12:37;;;;;;;6.70;2.97;;;691.60;1382.40;;;;;;5117417;27;20052;-80
2022/06/16 08:15:03;;;;;;;11.50;3.95;;;691.80;1356.80;;;;;;5112167;27;20500;-75
2022/06/16 08:17:32;;;;;;;10.02;3.72;;;691.90;1356.80;;;;;;5111441;28;20058;-75
2022/06/16 08:19:59;;;;;;;6.15;3.40;;;691.90;1331.20;;;;;;5111653;28;20027;-74
2022/06/16 08:22:26;;;;;;;5.32;3.08;;;691.90;1356.80;;;;;;5109946;28;20064;-74
2022/06/16 08:24:53;;;;;;;8.15;2.88;;;692.00;1254.40;;;;;;5109607;28;20091;-76
2022/06/16 08:27:24;;;;;;;12.85;3.15;;;692.00;1280.00;;;;;;5111098;28;20045;-74
2022/06/16 08:29:50;;;;;;;6.05;3.03;;;692.10;1280.00;;;;;;5108830;28;20038;-77
2022/06/16 08:32:18;;;;;;;7.18;3.33;;;692.10;1254.40;;;;;;5111579;28;20055;-75
2022/06/16 08:34:44;;;;;;;6.13;3.00;;;691.90;1280.00;;;;;;5108295;28;20086;-76
2022/06/16 08:37:10;;;;;;;6.13;2.47;;;692.10;1203.20;;;;;;5111100;28;20028;-76
2022/06/16 08:39:36;;;;;;;9.82;2.85;;;716.80;1254.40;;;;;;5095948;28;20035;-76
2022/06/16 08:42:19;;;;;;;5.20;2.95;;;716.80;1203.20;;;;;;5110923;28;20419;-73
2022/06/16 08:45:05;;;;;;;5.35;2.53;;;716.80;1203.20;;;;;;5107921;28;20396;-75
2022/06/16 08:47:45;;;;;;;;;;;716.80;1228.80;;;;;;5111059;28;20053;-75
2022/06/16 08:50:33;;;;;;;5.68;2.70;;;716.80;1228.80;;;;;;5108664;28;19923;-79
2022/06/16 08:53:08;;;;;;;5.97;2.72;;;716.90;1254.40;;;;;;5109138;28;20485;-73
2022/06/16 08:55:46;;;;;;;11.43;2.70;;;716.90;1228.80;;;;;;5106467;28;20051;-77
2022/06/16 08:58:20;;;;;;;6.30;2.70;;;716.90;1203.20;;;;;;5117679;27;20114;-76
2022/06/16 09:00:51;;;;;;;4.47;2.50;;;717.00;1228.80;;;;;;5116645;27;20106;-75
2022/06/16 09:03:20;;;;;;;6.70;2.40;;;717.10;1152.00;;;;;;5130980;27;20015;-76
2022/06/16 09:05:56;;;;;;;7.68;3.10;;;717.10;1152.00;;;;;;5114526;28;20027;-75
2022/06/16 09:09:06;;;;;;;4.70;2.78;;;717.40;1203.20;;;;;;5131885;27;20015;-76
2022/06/16 09:12:00;;;;;;;8.73;2.80;;;717.50;1203.20;;;;;;5030992;28;20099;-75
2022/06/16 09:15:13;;;;;;;5.38;2.22;;;717.50;1126.40;;;;;;5031295;28;20025;-75
2022/06/16 09:18:08;;;;;;;5.03;2.40;;;717.70;1126.40;;;;;;4953294;29;20166;-76
2022/06/16 09:20:45;;;;;;;7.68;2.20;;;717.70;1126.40;;;;;;4934871;29;20055;-75
2022/06/16 09:23:27;;;;;;;3.75;1.80;;;742.40;1075.20;;;;;;4953485;29;20035;-75
2022/06/16 09:26:02;;;;;;;3.25;1.77;;;742.40;1024.00;;;;;;4941658;29;20031;-75
2022/06/16 09:28:39;;;;;;;3.80;2.08;;;742.60;1024.00;;;;;;4952732;29;20039;-75
2022/06/16 09:31:16;;;;;;;7.00;2.10;;;742.60;1024.00;;;;;;4953318;29;20027;-79
2022/06/16 09:34:02;;;;;;;5.43;2.35;;;742.70;1024.00;;;;;;4936709;29;20520;-78
2022/06/16 09:36:33;;;;;;;6.82;2.25;;;742.90;1049.60;;;;;;4926666;29;20039;-78
2022/06/16 09:39:41;;;;;;;6.35;2.50;;;743.10;1024.00;;;;;;4949575;29;20444;-73
2022/06/16 09:42:35;;;;;;;4.40;2.35;;;743.20;1049.60;;;;;;4950019;29;20090;-78
2022/06/16 09:45:39;;;;;;;8.75;2.88;;;743.30;1075.20;;;;;;4933128;29;20436;-79
2022/06/16 09:48:08;;;;;;;6.80;2.85;;;768.00;1075.20;;;;;;4980363;28;20037;-75
2022/06/16 09:50:58;;;;;;;6.53;3.47;;;768.20;1024.00;;;;;;5050539;28;20390;-79
2022/06/16 09:53:31;;;;;;;5.60;2.22;;;768.30;1024.00;;;;;;5088244;27;20370;-78
2022/06/16 09:56:05;;;;;;;5.25;2.15;;;768.50;1024.00;;;;;;5118785;27;20024;-77
2022/06/16 09:58:38;;;;;;;9.43;2.80;;;768.60;1024.00;;;;;;5109139;28;20035;-76
2022/06/16 10:01:08;;;;;;;4.88;2.53;;;768.90;1024.00;;;;;;5109055;28;20019;-75
2022/06/16 10:03:38;;;;;;;5.10;2.22;;;768.70;998.40;;;;;;5105283;28;20028;-77
2022/06/16 10:06:29;;;;;;;4.30;2.05;;;768.80;972.80;;;;;;5118589;27;20027;-74
2022/06/16 10:09:00;;;;;;;6.10;2.55;;;768.90;947.20;;;;;;5133568;27;20579;-74
2022/06/16 10:11:51;;;;;;;8.57;2.50;;;793.70;947.20;;;;;;5125811;27;20027;-77
2022/06/16 10:14:37;;;;;;;3.63;1.98;;;793.70;947.20;;;;;;5112380;28;20034;-74
2022/06/16 10:17:06;;;;;;;;;;;793.90;921.60;;;;;;5108472;28;20147;-76
2022/06/16 10:19:38;;;;;;;5.78;2.25;;;793.90;921.60;;;;;;5103001;28;19904;-74
2022/06/16 10:22:05;;;;;;;4.35;2.35;;;794.00;896.00;;;;;;5108598;28;20047;-76
2022/06/16 10:24:38;;;;;;;4.25;2.17;;;794.10;921.60;;;;;;5104246;28;20266;-75
2022/06/16 10:27:04;;;;;;;10.50;2.45;;;794.20;921.60;;;;;;5104433;28;20023;-75
2022/06/16 10:29:34;;;;;;;3.13;2.03;;;794.20;921.60;;;;;;5101789;28;20081;-74
2022/06/16 10:32:00;;;;;;;7.82;2.47;;;794.20;921.60;;;;;;5108167;28;20055;-75
2022/06/16 10:34:36;;;;;;;6.70;2.72;;;794.20;921.60;;;;;;5108161;28;20023;-75
2022/06/16 10:37:16;;;;;;;4.40;2.22;;;794.50;921.60;;;;;;5107744;28;20031;-75
2022/06/16 10:39:54;;;;;;;8.48;2.63;;;819.20;921.60;;;;;;5105415;28;20026;-77
2022/06/16 10:42:41;;;;;;;4.15;2.30;;;819.40;921.60;;;;;;5090184;28;20046;-74
2022/06/16 10:45:15;;;;;;;2.97;1.92;;;819.60;921.60;;;;;;5085910;28;20023;-76
2022/06/16 10:48:01;;;;;;;6.55;2.22;;;819.40;921.60;;;;;;5105656;28;20550;-73
2022/06/16 10:50:36;;;;;;;5.70;2.28;;;819.30;896.00;;;;;;5109997;28;20100;-73
2022/06/16 10:53:24;;;;;;;4.68;2.00;;;819.50;896.00;;;;;;5102887;28;20027;-73
2022/06/16 10:55:56;;;;;;;3.78;2.13;;;819.50;896.00;;;;;;5106596;28;20015;-74
2022/06/16 10:58:29;;;;;;;5.13;2.47;;;819.60;896.00;;;;;;5109607;28;20023;-76
2022/06/16 11:01:19;;;;;;;4.63;2.25;;;819.60;896.00;;;;;;5131929;28;20026;-74
2022/06/16 11:03:48;;;;;;;11.27;2.40;;;819.80;921.60;;;;;;5132660;28;20023;-76
2022/06/16 11:06:18;;;;;;;4.40;2.35;;;820.10;921.60;;;;;;5132673;28;20473;-77
2022/06/16 11:08:52;;;;;;;5.47;2.47;;;844.80;896.00;;;;;;5132921;28;20106;-74
2022/06/16 11:11:45;;;;;;;6.55;3.00;;;844.80;896.00;;;;;;5126173;28;20396;-74
2022/06/16 11:14:22;;;;;;;8.30;2.97;;;820.00;921.60;;;;;;5128649;28;20086;-74
2022/06/16 11:16:51;;;;;;;5.82;2.55;;;820.00;896.00;;;;;;5132543;28;20024;-74
2022/06/16 11:19:49;;;;;;;9.52;2.67;;;819.90;896.00;;;;;;5130724;28;20015;-73
2022/06/16 11:22:16;;;;;;;5.75;2.53;;;819.70;921.60;;;;;;5109540;28;20091;-73
2022/06/16 11:25:01;;;;;;;5.43;2.30;;;819.60;896.00;;;;;;5105028;28;20013;-73
2022/06/16 11:27:28;;;;;;;4.80;2.70;;;819.80;896.00;;;;;;5107816;28;20080;-75
2022/06/16 11:29:54;;;;;;;3.83;2.30;;;820.10;921.60;;;;;;5102760;28;20481;-73
2022/06/16 11:32:28;;;;;;;4.97;2.22;;;820.00;921.60;;;;;;5099683;28;20068;-73
2022/06/16 11:34:55;;;;;;;5.88;2.30;;;820.10;921.60;;;;;;5107002;28;20165;-73
2022/06/16 11:37:29;;;;;;;12.20;2.70;;;820.10;921.60;;;;;;5107679;28;20027;-73
2022/06/16 11:40:31;;;;;;;4.90;2.50;;;820.00;921.60;;;;;;5106642;28;20501;-74
2022/06/16 11:43:28;;;;;;;5.57;2.50;;;820.10;896.00;;;;;;5106675;28;20316;-74
2022/06/16 11:46:06;;;;;;;6.40;2.63;;;820.10;896.00;;;;;;5111489;28;20102;-73
2022/06/16 11:48:35;;;;;;;7.88;2.45;;;820.10;921.60;;;;;;5106468;28;20063;-72
2022/06/16 11:51:18;;;;;;;5.93;2.45;;;844.90;972.80;;;;;;5106592;28;20020;-74
2022/06/16 11:53:58;;;;;;;6.72;2.75;;;844.90;947.20;;;;;;5105026;28;20027;-74
2022/06/16 11:56:46;;;;;;;5.85;2.42;;;820.10;921.60;;;;;;5108310;28;20046;-74
2022/06/16 11:59:50;;;;;;;5.45;2.28;;;820.10;921.60;;;;;;5109248;28;20035;-73
2022/06/16 12:02:39;;;;;;;5.78;2.75;;;844.80;921.60;;;;;;5109792;28;20024;-73
2022/06/16 12:05:21;;;;;;;8.68;2.75;;;844.90;921.60;;;;;;5005065;28;20728;-73
2022/06/16 12:08:00;;;;;;;6.85;2.45;;;845.00;896.00;;;;;;5015686;28;20491;-74
2022/06/16 12:10:51;;;;;;;5.15;2.55;;;844.80;921.60;;;;;;5012412;28;20042;-74
2022/06/16 12:13:23;;;;;;;4.82;2.60;;;845.10;921.60;;;;;;5012249;28;20054;-73
2022/06/16 12:16:15;;;;;;;9.63;2.63;;;844.90;896.00;;;;;;5012369;28;20041;-73
2022/06/16 12:19:07;;;;;;;6.38;2.42;;;845.00;896.00;;;;;;5012276;28;20049;-74
2022/06/16 12:21:39;;;;;;;9.27;2.40;;;845.10;921.60;;;;;;4993278;28;20038;-74
2022/06/16 12:24:41;;;;;;;4.47;2.42;;;845.10;896.00;;;;;;5012038;28;20021;-73
2022/06/16 12:27:14;;;;;;;5.13;2.42;;;845.20;921.60;;;;;;5011000;28;20037;-77
2022/06/16 12:29:46;;;;;;;6.05;2.67;;;845.30;896.00;;;;;;5011705;28;20026;-74
2022/06/16 12:32:56;;;;;;;4.05;2.10;;;845.20;896.00;;;;;;5012528;28;20029;-76
2022/06/16 12:35:33;;;;;;;4.22;2.30;;;845.30;921.60;;;;;;4934418;29;20040;-75
2022/06/16 12:38:08;;;;;;;3.92;2.30;;;845.30;896.00;;;;;;4934688;29;20098;-75
2022/06/16 12:40:42;;;;;;;4.32;2.45;;;845.30;896.00;;;;;;4934594;29;20143;-76
2022/06/16 12:43:15;;;;;;;5.03;2.67;;;845.20;870.40;;;;;;5000215;28;20025;-76
2022/06/16 12:45:45;;;;;;;4.70;2.17;;;845.30;896.00;;;;;;5037369;28;20038;-76
2022/06/16 12:48:24;;;;;;;4.28;2.22;;;845.50;896.00;;;;;;5028745;28;20021;-76
2022/06/16 12:50:58;;;;;;;5.75;2.40;;;845.40;896.00;;;;;;5045489;28;20022;-75
2022/06/16 12:53:36;;;;;;;6.13;2.60;;;845.40;896.00;;;;;;5031001;28;20087;-76
2022/06/16 12:56:05;;;;;;;8.25;2.72;;;845.40;870.40;;;;;;5030234;28;20018;-76
2022/06/16 12:58:53;;;;;;;6.45;2.63;;;845.20;896.00;;;;;;5031243;28;20033;-75
2022/06/16 13:01:19;;;;;;;6.30;2.67;;;845.30;896.00;;;;;;5031382;28;20014;-76
2022/06/16 13:04:10;;;;;;;6.03;2.65;;;844.90;896.00;;;;;;5031504;28;20446;-76